sensor_id;sensor_type;location;lat;lon;timestamp;pressure;altitude;pressure_sealevel;temperature;humidity
36788;BME280;22738;45.560;9.434;2023-07-13T00:04:50;99611.88;;;21.58;100.00
36788;BME280;22738;45.560;9.434;2023-07-13T00:11:33;99621.91;;;21.62;100.00
36788;BME280;22738;45.560;9.434;2023-07-13T00:18:14;99592.00;;;21.70;100.00
36788;BME280;22738;45.560;9.434;2023-07-13T00:24:55;99594.00;;;21.68;100.00
36788;BME280;22738;45.560;9.434;2023-07-13T00:31:37;99598.94;;;21.71;100.00
36788;BME280;22738;45.560;9.434;2023-07-13T00:38:19;99602.69;;;21.76;100.00
36788;BME280;22738;45.560;9.434;2023-07-13T00:51:55;99629.91;;;21.77;100.00
36788;BME280;22738;45.560;9.434;2023-07-13T00:58:38;99633.16;;;21.56;100.00
36788;BME280;22738;45.560;9.434;2023-07-13T01:05:21;99646.91;;;21.44;100.00
36788;BME280;22738;45.560;9.434;2023-07-13T01:12:05;99646.59;;;21.39;100.00
36788;BME280;22738;45.560;9.434;2023-07-13T01:18:46;99638.84;;;21.37;100.00
36788;BME280;22738;45.560;9.434;2023-07-13T01:25:27;99637.19;;;21.36;100.00
36788;BME280;22738;45.560;9.434;2023-07-13T01:32:10;99646.63;;;21.30;100.00
36788;BME280;22738;45.560;9.434;2023-07-13T01:38:51;99654.88;;;21.27;100.00
36788;BME280;22738;45.560;9.434;2023-07-13T01:45:34;99657.97;;;21.31;100.00
36788;BME280;22738;45.560;9.434;2023-07-13T01:52:17;99651.22;;;21.28;100.00
36788;BME280;22738;45.560;9.434;2023-07-13T01:58:58;99640.97;;;21.42;100.00
36788;BME280;22738;45.560;9.434;2023-07-13T02:05:41;99650.78;;;21.56;100.00
36788;BME280;22738;45.560;9.434;2023-07-13T02:12:24;99640.91;;;21.58;100.00
36788;BME280;22738;45.560;9.434;2023-07-13T02:19:05;99621.44;;;21.59;100.00
36788;BME280;22738;45.560;9.434;2023-07-13T02:25:47;99644.19;;;21.60;100.00
36788;BME280;22738;45.560;9.434;2023-07-13T02:32:30;99655.78;;;21.43;100.00
36788;BME280;22738;45.560;9.434;2023-07-13T02:39:13;99646.97;;;21.27;100.00
36788;BME280;22738;45.560;9.434;2023-07-13T02:45:54;99642.41;;;21.52;100.00
36788;BME280;22738;45.560;9.434;2023-07-13T02:52:35;99651.47;;;21.58;100.00
36788;BME280;22738;45.560;9.434;2023-07-13T02:59:16;99666.66;;;21.48;100.00
36788;BME280;22738;45.560;9.434;2023-07-13T03:06:00;99677.25;;;21.40;100.00
36788;BME280;22738;45.560;9.434;2023-07-13T03:12:48;99678.09;;;21.32;100.00
36788;BME280;22738;45.560;9.434;2023-07-13T03:19:38;99669.22;;;21.25;100.00
36788;BME280;22738;45.560;9.434;2023-07-13T03:26:20;99660.41;;;21.41;100.00
36788;BME280;22738;45.560;9.434;2023-07-13T03:33:03;99673.59;;;21.49;100.00
36788;BME280;22738;45.560;9.434;2023-07-13T03:39:44;99653.47;;;21.48;100.00
36788;BME280;22738;45.560;9.434;2023-07-13T03:46:28;99664.94;;;21.63;100.00
36788;BME280;22738;45.560;9.434;2023-07-13T03:53:11;99668.88;;;21.67;100.00
36788;BME280;22738;45.560;9.434;2023-07-13T03:59:53;99671.88;;;21.64;100.00
36788;BME280;22738;45.560;9.434;2023-07-13T04:06:35;99676.94;;;21.73;100.00
36788;BME280;22738;45.560;9.434;2023-07-13T04:13:16;99679.03;;;21.86;100.00
36788;BME280;22738;45.560;9.434;2023-07-13T04:19:57;99658.94;;;21.85;100.00
36788;BME280;22738;45.560;9.434;2023-07-13T04:26:38;99663.41;;;22.07;100.00
36788;BME280;22738;45.560;9.434;2023-07-13T04:33:22;99692.75;;;22.35;100.00
36788;BME280;22738;45.560;9.434;2023-07-13T04:40:03;99680.50;;;22.64;100.00
36788;BME280;22738;45.560;9.434;2023-07-13T04:46:44;99688.81;;;22.91;100.00
36788;BME280;22738;45.560;9.434;2023-07-13T04:53:27;99672.63;;;23.23;100.00
36788;BME280;22738;45.560;9.434;2023-07-13T05:00:09;99654.84;;;23.31;100.00
36788;BME280;22738;45.560;9.434;2023-07-13T05:06:51;99672.19;;;23.34;100.00
36788;BME280;22738;45.560;9.434;2023-07-13T05:13:32;99655.75;;;23.24;100.00
36788;BME280;22738;45.560;9.434;2023-07-13T05:20:14;99644.00;;;23.41;100.00
36788;BME280;22738;45.560;9.434;2023-07-13T05:26:55;99643.34;;;24.25;100.00
36788;BME280;22738;45.560;9.434;2023-07-13T05:33:36;99656.09;;;23.65;100.00
36788;BME280;22738;45.560;9.434;2023-07-13T05:40:17;99665.13;;;24.06;100.00
36788;BME280;22738;45.560;9.434;2023-07-13T05:46:58;99643.66;;;26.73;100.00
36788;BME280;22738;45.560;9.434;2023-07-13T05:53:39;99644.94;;;25.30;100.00
36788;BME280;22738;45.560;9.434;2023-07-13T06:00:21;99661.19;;;28.78;100.00
36788;BME280;22738;45.560;9.434;2023-07-13T06:07:02;99667.03;;;29.47;100.00
36788;BME280;22738;45.560;9.434;2023-07-13T06:13:43;99680.63;;;30.42;100.00
36788;BME280;22738;45.560;9.434;2023-07-13T06:20:24;99690.44;;;32.20;100.00
36788;BME280;22738;45.560;9.434;2023-07-13T06:27:06;99691.25;;;32.20;100.00
36788;BME280;22738;45.560;9.434;2023-07-13T06:33:47;99691.31;;;32.09;100.00
36788;BME280;22738;45.560;9.434;2023-07-13T06:40:28;99706.91;;;34.63;99.40
36788;BME280;22738;45.560;9.434;2023-07-13T06:47:11;99702.75;;;33.32;94.70
36788;BME280;22738;45.560;9.434;2023-07-13T06:53:53;99701.75;;;31.42;100.00
36788;BME280;22738;45.560;9.434;2023-07-13T07:00:35;99692.59;;;29.01;100.00
36788;BME280;22738;45.560;9.434;2023-07-13T07:07:16;99685.03;;;28.10;100.00
36788;BME280;22738;45.560;9.434;2023-07-13T07:13:57;99686.09;;;30.58;100.00
36788;BME280;22738;45.560;9.434;2023-07-13T07:20:38;99684.34;;;31.96;100.00
36788;BME280;22738;45.560;9.434;2023-07-13T07:27:21;99686.59;;;32.77;100.00
36788;BME280;22738;45.560;9.434;2023-07-13T07:34:02;99695.66;;;30.77;100.00
36788;BME280;22738;45.560;9.434;2023-07-13T07:40:44;99699.41;;;31.34;100.00
36788;BME280;22738;45.560;9.434;2023-07-13T07:47:26;99713.97;;;33.51;100.00
36788;BME280;22738;45.560;9.434;2023-07-13T07:54:07;99728.53;;;31.42;100.00
36788;BME280;22738;45.560;9.434;2023-07-13T08:00:48;99744.59;;;29.95;100.00
36788;BME280;22738;45.560;9.434;2023-07-13T08:07:32;99736.94;;;28.46;100.00
36788;BME280;22738;45.560;9.434;2023-07-13T08:14:13;99721.69;;;27.77;100.00
36788;BME280;22738;45.560;9.434;2023-07-13T08:20:55;99727.72;;;27.33;100.00
36788;BME280;22738;45.560;9.434;2023-07-13T08:27:39;99727.78;;;28.28;100.00
36788;BME280;22738;45.560;9.434;2023-07-13T08:34:20;99707.63;;;29.56;100.00
36788;BME280;22738;45.560;9.434;2023-07-13T08:41:10;99714.81;;;30.10;100.00
36788;BME280;22738;45.560;9.434;2023-07-13T08:48:01;99717.53;;;30.74;100.00
36788;BME280;22738;45.560;9.434;2023-07-13T08:54:47;99712.78;;;29.76;100.00
36788;BME280;22738;45.560;9.434;2023-07-13T09:01:39;99715.84;;;30.09;100.00
36788;BME280;22738;45.560;9.434;2023-07-13T09:08:34;99731.81;;;30.27;100.00
36788;BME280;22738;45.560;9.434;2023-07-13T09:15:43;99756.84;;;31.61;100.00
36788;BME280;22738;45.560;9.434;2023-07-13T09:22:27;99759.50;;;30.21;100.00
36788;BME280;22738;45.560;9.434;2023-07-13T09:29:14;99763.91;;;29.61;100.00
36788;BME280;22738;45.560;9.434;2023-07-13T09:36:00;99760.72;;;29.52;100.00
36788;BME280;22738;45.560;9.434;2023-07-13T09:42:43;99764.72;;;29.98;100.00
36788;BME280;22738;45.560;9.434;2023-07-13T09:49:26;99758.59;;;31.10;100.00
36788;BME280;22738;45.560;9.434;2023-07-13T09:56:22;99759.88;;;30.95;100.00
36788;BME280;22738;45.560;9.434;2023-07-13T10:10:20;99757.19;;;30.95;100.00
36788;BME280;22738;45.560;9.434;2023-07-13T10:17:04;99762.84;;;30.16;100.00
36788;BME280;22738;45.560;9.434;2023-07-13T10:23:50;99744.91;;;30.17;100.00
36788;BME280;22738;45.560;9.434;2023-07-13T10:30:39;99731.00;;;30.56;100.00
36788;BME280;22738;45.560;9.434;2023-07-13T10:37:31;99736.03;;;30.64;100.00
36788;BME280;22738;45.560;9.434;2023-07-13T10:44:21;99735.31;;;31.45;100.00
36788;BME280;22738;45.560;9.434;2023-07-13T10:51:07;99727.72;;;31.30;100.00
36788;BME280;22738;45.560;9.434;2023-07-13T10:57:48;99722.13;;;31.09;100.00
36788;BME280;22738;45.560;9.434;2023-07-13T11:04:40;99720.28;;;31.44;100.00
36788;BME280;22738;45.560;9.434;2023-07-13T11:18:19;99704.34;;;31.02;100.00
36788;BME280;22738;45.560;9.434;2023-07-13T11:32:25;99712.44;;;31.54;100.00
36788;BME280;22738;45.560;9.434;2023-07-13T11:46:30;99693.50;;;31.72;100.00
36788;BME280;22738;45.560;9.434;2023-07-13T11:53:11;99669.03;;;31.06;100.00
36788;BME280;22738;45.560;9.434;2023-07-13T11:59:53;99662.88;;;30.93;100.00
36788;BME280;22738;45.560;9.434;2023-07-13T12:06:36;99688.25;;;31.26;100.00
36788;BME280;22738;45.560;9.434;2023-07-13T12:13:21;99684.16;;;31.23;100.00
36788;BME280;22738;45.560;9.434;2023-07-13T12:20:17;99685.53;;;31.37;100.00
36788;BME280;22738;45.560;9.434;2023-07-13T12:27:00;99678.44;;;31.20;100.00
36788;BME280;22738;45.560;9.434;2023-07-13T12:33:43;99671.13;;;31.15;100.00
36788;BME280;22738;45.560;9.434;2023-07-13T12:40:29;99660.72;;;31.42;100.00
36788;BME280;22738;45.560;9.434;2023-07-13T12:47:13;99655.38;;;31.42;100.00
36788;BME280;22738;45.560;9.434;2023-07-13T12:54:19;99654.81;;;30.70;100.00
36788;BME280;22738;45.560;9.434;2023-07-13T13:01:02;99657.94;;;30.67;100.00
36788;BME280;22738;45.560;9.434;2023-07-13T13:07:43;99650.97;;;30.89;100.00
36788;BME280;22738;45.560;9.434;2023-07-13T13:14:29;99637.59;;;31.64;100.00
36788;BME280;22738;45.560;9.434;2023-07-13T13:21:11;99631.75;;;31.95;100.00
36788;BME280;22738;45.560;9.434;2023-07-13T13:27:52;99674.78;;;31.60;100.00
36788;BME280;22738;45.560;9.434;2023-07-13T13:34:33;99678.78;;;31.35;100.00
36788;BME280;22738;45.560;9.434;2023-07-13T13:41:15;99666.31;;;31.40;100.00
36788;BME280;22738;45.560;9.434;2023-07-13T13:47:56;99659.34;;;30.81;100.00
36788;BME280;22738;45.560;9.434;2023-07-13T13:54:38;99651.06;;;30.83;100.00
36788;BME280;22738;45.560;9.434;2023-07-13T14:01:21;99643.53;;;30.68;100.00
36788;BME280;22738;45.560;9.434;2023-07-13T14:08:03;99638.50;;;30.83;100.00
36788;BME280;22738;45.560;9.434;2023-07-13T14:14:46;99633.16;;;30.60;100.00
36788;BME280;22738;45.560;9.434;2023-07-13T14:21:28;99614.31;;;30.55;100.00
36788;BME280;22738;45.560;9.434;2023-07-13T14:28:28;99607.91;;;30.56;100.00
36788;BME280;22738;45.560;9.434;2023-07-13T14:35:13;99609.66;;;30.97;100.00
36788;BME280;22738;45.560;9.434;2023-07-13T14:41:55;99605.69;;;30.99;100.00
36788;BME280;22738;45.560;9.434;2023-07-13T14:48:37;99601.28;;;30.82;100.00
36788;BME280;22738;45.560;9.434;2023-07-13T14:55:19;99594.53;;;30.91;100.00
36788;BME280;22738;45.560;9.434;2023-07-13T15:02:00;99591.84;;;30.79;100.00
36788;BME280;22738;45.560;9.434;2023-07-13T15:08:43;99584.53;;;30.98;100.00
36788;BME280;22738;45.560;9.434;2023-07-13T15:15:24;99584.81;;;31.13;100.00
36788;BME280;22738;45.560;9.434;2023-07-13T15:22:08;99577.88;;;30.43;100.00
36788;BME280;22738;45.560;9.434;2023-07-13T15:28:50;99579.75;;;30.65;100.00
36788;BME280;22738;45.560;9.434;2023-07-13T15:35:33;99581.59;;;30.76;100.00
36788;BME280;22738;45.560;9.434;2023-07-13T15:42:19;99582.09;;;30.73;100.00
36788;BME280;22738;45.560;9.434;2023-07-13T15:49:00;99592.31;;;30.76;100.00
36788;BME280;22738;45.560;9.434;2023-07-13T15:55:41;99596.25;;;31.09;100.00
36788;BME280;22738;45.560;9.434;2023-07-13T16:02:22;99592.53;;;30.86;100.00
36788;BME280;22738;45.560;9.434;2023-07-13T16:09:04;99593.31;;;31.22;100.00
36788;BME280;22738;45.560;9.434;2023-07-13T16:15:48;99593.63;;;31.37;100.00
36788;BME280;22738;45.560;9.434;2023-07-13T16:22:29;99590.63;;;31.22;100.00
36788;BME280;22738;45.560;9.434;2023-07-13T16:29:21;99603.03;;;30.99;100.00
36788;BME280;22738;45.560;9.434;2023-07-13T16:36:10;99596.94;;;31.16;100.00
36788;BME280;22738;45.560;9.434;2023-07-13T16:42:55;99595.22;;;31.38;100.00
36788;BME280;22738;45.560;9.434;2023-07-13T16:49:37;99602.34;;;30.92;100.00
36788;BME280;22738;45.560;9.434;2023-07-13T16:56:19;99604.41;;;30.67;100.00
36788;BME280;22738;45.560;9.434;2023-07-13T17:03:04;99608.25;;;30.94;100.00
36788;BME280;22738;45.560;9.434;2023-07-13T17:09:50;99605.53;;;31.18;100.00
36788;BME280;22738;45.560;9.434;2023-07-13T17:16:32;99603.50;;;30.73;100.00
36788;BME280;22738;45.560;9.434;2023-07-13T17:23:22;99606.84;;;30.80;100.00
36788;BME280;22738;45.560;9.434;2023-07-13T17:30:05;99612.13;;;30.98;100.00
36788;BME280;22738;45.560;9.434;2023-07-13T17:36:48;99615.81;;;30.74;100.00
36788;BME280;22738;45.560;9.434;2023-07-13T17:43:29;99626.88;;;30.89;100.00
36788;BME280;22738;45.560;9.434;2023-07-13T17:50:15;99644.44;;;30.51;100.00
36788;BME280;22738;45.560;9.434;2023-07-13T17:56:57;99657.94;;;30.56;100.00
36788;BME280;22738;45.560;9.434;2023-07-13T18:03:43;99656.41;;;30.07;100.00
36788;BME280;22738;45.560;9.434;2023-07-13T18:10:30;99661.09;;;29.82;100.00
36788;BME280;22738;45.560;9.434;2023-07-13T18:17:13;99664.66;;;29.57;100.00
36788;BME280;22738;45.560;9.434;2023-07-13T18:23:55;99656.78;;;29.44;100.00
36788;BME280;22738;45.560;9.434;2023-07-13T18:30:36;99657.38;;;29.28;100.00
36788;BME280;22738;45.560;9.434;2023-07-13T18:37:19;99658.63;;;29.08;100.00
36788;BME280;22738;45.560;9.434;2023-07-13T18:44:00;99662.06;;;28.90;100.00
36788;BME280;22738;45.560;9.434;2023-07-13T18:50:41;99659.97;;;28.74;100.00
36788;BME280;22738;45.560;9.434;2023-07-13T18:57:24;99671.53;;;28.68;100.00
36788;BME280;22738;45.560;9.434;2023-07-13T19:04:29;99669.81;;;28.17;100.00
36788;BME280;22738;45.560;9.434;2023-07-13T19:11:15;99677.19;;;27.78;100.00
36788;BME280;22738;45.560;9.434;2023-07-13T19:17:59;99688.13;;;27.63;100.00
36788;BME280;22738;45.560;9.434;2023-07-13T19:24:40;99689.78;;;27.51;100.00
36788;BME280;22738;45.560;9.434;2023-07-13T19:31:26;99702.97;;;27.39;100.00
36788;BME280;22738;45.560;9.434;2023-07-13T19:38:15;99711.56;;;27.22;100.00
36788;BME280;22738;45.560;9.434;2023-07-13T19:44:59;99720.97;;;27.18;100.00
36788;BME280;22738;45.560;9.434;2023-07-13T19:51:44;99735.94;;;27.06;100.00
36788;BME280;22738;45.560;9.434;2023-07-13T19:58:27;99747.22;;;26.81;100.00
36788;BME280;22738;45.560;9.434;2023-07-13T20:05:08;99753.09;;;26.70;100.00
36788;BME280;22738;45.560;9.434;2023-07-13T20:11:49;99760.84;;;26.52;100.00
36788;BME280;22738;45.560;9.434;2023-07-13T20:18:32;99769.66;;;26.46;100.00
36788;BME280;22738;45.560;9.434;2023-07-13T20:25:19;99770.03;;;26.30;100.00
36788;BME280;22738;45.560;9.434;2023-07-13T20:32:01;99781.88;;;26.28;100.00
36788;BME280;22738;45.560;9.434;2023-07-13T20:38:43;99782.03;;;26.19;100.00
36788;BME280;22738;45.560;9.434;2023-07-13T20:45:26;99789.66;;;25.95;100.00
36788;BME280;22738;45.560;9.434;2023-07-13T20:52:11;99789.38;;;25.77;100.00
36788;BME280;22738;45.560;9.434;2023-07-13T20:58:53;99800.78;;;25.71;100.00
36788;BME280;22738;45.560;9.434;2023-07-13T21:05:36;99795.31;;;25.44;100.00
36788;BME280;22738;45.560;9.434;2023-07-13T21:12:18;99794.81;;;25.34;100.00
36788;BME280;22738;45.560;9.434;2023-07-13T21:18:59;99803.06;;;25.18;100.00
36788;BME280;22738;45.560;9.434;2023-07-13T21:25:40;99801.56;;;25.09;100.00
36788;BME280;22738;45.560;9.434;2023-07-13T21:32:23;99807.13;;;24.93;100.00
36788;BME280;22738;45.560;9.434;2023-07-13T21:39:05;99816.63;;;24.66;100.00
36788;BME280;22738;45.560;9.434;2023-07-13T21:45:47;99818.81;;;24.63;100.00
36788;BME280;22738;45.560;9.434;2023-07-13T21:52:29;99821.31;;;24.64;100.00
36788;BME280;22738;45.560;9.434;2023-07-13T21:59:16;99834.47;;;24.58;100.00
36788;BME280;22738;45.560;9.434;2023-07-13T22:06:01;99834.16;;;24.46;100.00
36788;BME280;22738;45.560;9.434;2023-07-13T22:12:43;99839.09;;;24.35;100.00
36788;BME280;22738;45.560;9.434;2023-07-13T22:19:27;99839.22;;;24.12;100.00
36788;BME280;22738;45.560;9.434;2023-07-13T22:26:23;99855.19;;;23.89;100.00
36788;BME280;22738;45.560;9.434;2023-07-13T22:33:14;99855.19;;;23.89;100.00
36788;BME280;22738;45.560;9.434;2023-07-13T22:39:56;99861.41;;;23.96;100.00
36788;BME280;22738;45.560;9.434;2023-07-13T22:46:38;99856.56;;;24.00;100.00
36788;BME280;22738;45.560;9.434;2023-07-13T22:53:23;99865.94;;;23.88;100.00
36788;BME280;22738;45.560;9.434;2023-07-13T23:00:06;99853.16;;;23.77;100.00
36788;BME280;22738;45.560;9.434;2023-07-13T23:06:50;99867.59;;;23.74;100.00
36788;BME280;22738;45.560;9.434;2023-07-13T23:13:32;99866.31;;;23.70;100.00
36788;BME280;22738;45.560;9.434;2023-07-13T23:20:24;99877.25;;;23.67;100.00
36788;BME280;22738;45.560;9.434;2023-07-13T23:27:07;99877.88;;;23.69;100.00
36788;BME280;22738;45.560;9.434;2023-07-13T23:33:48;99896.22;;;23.56;100.00
36788;BME280;22738;45.560;9.434;2023-07-13T23:40:29;99894.72;;;23.39;100.00
36788;BME280;22738;45.560;9.434;2023-07-13T23:47:10;99881.50;;;23.31;100.00
36788;BME280;22738;45.560;9.434;2023-07-13T23:53:52;99887.44;;;23.33;100.00
